sensor_id;sensor_type;location;lat;lon;timestamp;pressure;altitude;pressure_sealevel;temperature;humidity
35307;BME280;21420;52.196;21.416;2024-01-25T00:00:52;99107.19;;;5.74;75.93
35307;BME280;21420;52.196;21.416;2024-01-25T00:03:18;99096.78;;;5.76;75.95
35307;BME280;21420;52.196;21.416;2024-01-25T00:05:45;99095.73;;;5.77;76.06
35307;BME280;21420;52.196;21.416;2024-01-25T00:08:12;99084.42;;;5.78;75.98
35307;BME280;21420;52.196;21.416;2024-01-25T00:10:39;99089.36;;;5.81;75.96
35307;BME280;21420;52.196;21.416;2024-01-25T00:13:05;99090.50;;;5.81;76.09
35307;BME280;21420;52.196;21.416;2024-01-25T00:15:32;99090.33;;;5.82;75.93
35307;BME280;21420;52.196;21.416;2024-01-25T00:17:59;99075.60;;;5.83;75.92
35307;BME280;21420;52.196;21.416;2024-01-25T00:20:25;99072.13;;;5.88;76.04
35307;BME280;21420;52.196;21.416;2024-01-25T00:22:52;99073.64;;;5.89;75.93
35307;BME280;21420;52.196;21.416;2024-01-25T00:25:19;99076.45;;;5.85;76.00
35307;BME280;21420;52.196;21.416;2024-01-25T00:27:46;99073.70;;;5.84;75.96
35307;BME280;21420;52.196;21.416;2024-01-25T00:30:14;99072.85;;;5.80;75.90
35307;BME280;21420;52.196;21.416;2024-01-25T00:32:40;99080.80;;;5.80;75.83
35307;BME280;21420;52.196;21.416;2024-01-25T00:35:08;99068.51;;;5.82;75.89
35307;BME280;21420;52.196;21.416;2024-01-25T00:37:37;99060.50;;;5.84;75.88
35307;BME280;21420;52.196;21.416;2024-01-25T00:40:04;99078.81;;;5.84;75.88
35307;BME280;21420;52.196;21.416;2024-01-25T00:42:37;99068.65;;;5.87;75.99
35307;BME280;21420;52.196;21.416;2024-01-25T00:45:08;99078.41;;;5.88;75.85
35307;BME280;21420;52.196;21.416;2024-01-25T00:47:35;99071.55;;;5.87;75.88
35307;BME280;21420;52.196;21.416;2024-01-25T00:50:03;99072.69;;;5.89;75.85
35307;BME280;21420;52.196;21.416;2024-01-25T00:52:31;99090.08;;;5.86;75.85
35307;BME280;21420;52.196;21.416;2024-01-25T00:54:58;99089.21;;;5.86;75.90
35307;BME280;21420;52.196;21.416;2024-01-25T00:57:24;99090.80;;;5.87;75.65
35307;BME280;21420;52.196;21.416;2024-01-25T00:59:51;99102.33;;;5.81;75.76
35307;BME280;21420;52.196;21.416;2024-01-25T01:02:20;99097.10;;;5.76;75.68
35307;BME280;21420;52.196;21.416;2024-01-25T01:04:48;99098.52;;;5.70;75.34
35307;BME280;21420;52.196;21.416;2024-01-25T01:07:16;99106.05;;;5.62;75.42
35307;BME280;21420;52.196;21.416;2024-01-25T01:09:43;99117.92;;;5.55;75.34
35307;BME280;21420;52.196;21.416;2024-01-25T01:12:10;99122.79;;;5.48;75.49
35307;BME280;21420;52.196;21.416;2024-01-25T01:14:37;99110.69;;;5.39;75.43
35307;BME280;21420;52.196;21.416;2024-01-25T01:17:03;99127.67;;;5.35;75.34
35307;BME280;21420;52.196;21.416;2024-01-25T01:19:30;99122.46;;;5.33;75.46
35307;BME280;21420;52.196;21.416;2024-01-25T01:21:57;99104.48;;;5.31;75.51
35307;BME280;21420;52.196;21.416;2024-01-25T01:24:24;99105.45;;;5.32;75.50
35307;BME280;21420;52.196;21.416;2024-01-25T01:26:51;99113.44;;;5.28;75.55
35307;BME280;21420;52.196;21.416;2024-01-25T01:29:18;99114.11;;;5.27;75.59
35307;BME280;21420;52.196;21.416;2024-01-25T01:31:45;99112.08;;;5.27;75.63
35307;BME280;21420;52.196;21.416;2024-01-25T01:34:12;99119.04;;;5.24;75.63
35307;BME280;21420;52.196;21.416;2024-01-25T01:36:40;99119.20;;;5.20;75.76
35307;BME280;21420;52.196;21.416;2024-01-25T01:39:07;99110.39;;;5.19;75.74
35307;BME280;21420;52.196;21.416;2024-01-25T01:41:34;99099.54;;;5.19;75.76
35307;BME280;21420;52.196;21.416;2024-01-25T01:44:00;99112.54;;;5.18;75.76
35307;BME280;21420;52.196;21.416;2024-01-25T01:46:38;99109.48;;;5.19;75.72
35307;BME280;21420;52.196;21.416;2024-01-25T01:49:08;99121.41;;;5.17;75.81
35307;BME280;21420;52.196;21.416;2024-01-25T01:51:38;99116.71;;;5.14;75.95
35307;BME280;21420;52.196;21.416;2024-01-25T01:54:07;99112.95;;;5.15;75.98
35307;BME280;21420;52.196;21.416;2024-01-25T01:56:34;99124.36;;;5.17;76.03
35307;BME280;21420;52.196;21.416;2024-01-25T01:59:04;99118.84;;;5.17;75.93
35307;BME280;21420;52.196;21.416;2024-01-25T02:01:32;99118.27;;;5.18;75.93
35307;BME280;21420;52.196;21.416;2024-01-25T02:04:00;99112.77;;;5.20;75.94
35307;BME280;21420;52.196;21.416;2024-01-25T02:06:27;99122.60;;;5.20;76.09
35307;BME280;21420;52.196;21.416;2024-01-25T02:08:54;99123.34;;;5.19;76.06
35307;BME280;21420;52.196;21.416;2024-01-25T02:11:22;99128.61;;;5.19;75.94
35307;BME280;21420;52.196;21.416;2024-01-25T02:13:49;99121.18;;;5.19;75.96
35307;BME280;21420;52.196;21.416;2024-01-25T02:16:16;99124.15;;;5.18;75.99
35307;BME280;21420;52.196;21.416;2024-01-25T02:18:44;99119.28;;;5.18;75.91
35307;BME280;21420;52.196;21.416;2024-01-25T02:21:12;99114.10;;;5.19;76.13
35307;BME280;21420;52.196;21.416;2024-01-25T02:23:39;99115.45;;;5.17;76.09
35307;BME280;21420;52.196;21.416;2024-01-25T02:26:06;99129.02;;;5.19;76.11
35307;BME280;21420;52.196;21.416;2024-01-25T02:28:33;99122.42;;;5.19;76.15
35307;BME280;21420;52.196;21.416;2024-01-25T02:31:02;99121.84;;;5.20;76.11
35307;BME280;21420;52.196;21.416;2024-01-25T02:33:29;99116.69;;;5.22;76.13
35307;BME280;21420;52.196;21.416;2024-01-25T02:35:57;99118.05;;;5.20;76.12
35307;BME280;21420;52.196;21.416;2024-01-25T02:38:24;99134.33;;;5.22;76.04
35307;BME280;21420;52.196;21.416;2024-01-25T02:40:51;99129.34;;;5.24;76.04
35307;BME280;21420;52.196;21.416;2024-01-25T02:43:20;99124.88;;;5.21;76.10
35307;BME280;21420;52.196;21.416;2024-01-25T02:45:47;99138.00;;;5.21;76.16
35307;BME280;21420;52.196;21.416;2024-01-25T02:48:15;99135.66;;;5.21;76.09
35307;BME280;21420;52.196;21.416;2024-01-25T02:50:43;99134.12;;;5.19;75.99
35307;BME280;21420;52.196;21.416;2024-01-25T02:53:10;99140.13;;;5.18;75.98
35307;BME280;21420;52.196;21.416;2024-01-25T02:55:36;99137.21;;;5.15;76.00
35307;BME280;21420;52.196;21.416;2024-01-25T02:58:03;99135.79;;;5.12;76.11
35307;BME280;21420;52.196;21.416;2024-01-25T03:00:30;99132.15;;;5.08;75.97
35307;BME280;21420;52.196;21.416;2024-01-25T03:02:57;99136.51;;;5.06;76.03
35307;BME280;21420;52.196;21.416;2024-01-25T03:05:24;99130.98;;;5.04;76.04
35307;BME280;21420;52.196;21.416;2024-01-25T03:07:51;99137.48;;;5.02;76.08
35307;BME280;21420;52.196;21.416;2024-01-25T03:10:18;99134.63;;;4.98;76.08
35307;BME280;21420;52.196;21.416;2024-01-25T03:12:44;99134.17;;;4.96;76.00
35307;BME280;21420;52.196;21.416;2024-01-25T03:15:11;99135.33;;;4.96;76.02
35307;BME280;21420;52.196;21.416;2024-01-25T03:17:39;99137.17;;;4.94;76.08
35307;BME280;21420;52.196;21.416;2024-01-25T03:20:06;99135.09;;;4.92;76.14
35307;BME280;21420;52.196;21.416;2024-01-25T03:22:33;99143.73;;;4.91;76.12
35307;BME280;21420;52.196;21.416;2024-01-25T03:25:00;99136.45;;;4.91;76.15
35307;BME280;21420;52.196;21.416;2024-01-25T03:27:27;99142.55;;;4.90;76.02
35307;BME280;21420;52.196;21.416;2024-01-25T03:29:53;99143.61;;;4.90;76.04
35307;BME280;21420;52.196;21.416;2024-01-25T03:32:20;99138.00;;;4.89;76.17
35307;BME280;21420;52.196;21.416;2024-01-25T03:34:46;99139.02;;;4.89;76.13
35307;BME280;21420;52.196;21.416;2024-01-25T03:37:14;99136.20;;;4.88;76.04
35307;BME280;21420;52.196;21.416;2024-01-25T03:39:40;99132.08;;;4.88;76.18
35307;BME280;21420;52.196;21.416;2024-01-25T03:42:07;99138.27;;;4.88;76.20
35307;BME280;21420;52.196;21.416;2024-01-25T03:44:34;99131.69;;;4.86;76.13
35307;BME280;21420;52.196;21.416;2024-01-25T03:47:00;99138.06;;;4.85;76.15
35307;BME280;21420;52.196;21.416;2024-01-25T03:49:27;99127.91;;;4.85;76.11
35307;BME280;21420;52.196;21.416;2024-01-25T03:51:54;99143.59;;;4.83;76.19
35307;BME280;21420;52.196;21.416;2024-01-25T03:54:20;99146.44;;;4.81;76.07
35307;BME280;21420;52.196;21.416;2024-01-25T03:56:47;99137.66;;;4.80;76.22
35307;BME280;21420;52.196;21.416;2024-01-25T03:59:14;99133.70;;;4.82;76.21
35307;BME280;21420;52.196;21.416;2024-01-25T04:01:43;99143.31;;;4.82;76.20
35307;BME280;21420;52.196;21.416;2024-01-25T04:04:10;99139.27;;;4.79;76.28
35307;BME280;21420;52.196;21.416;2024-01-25T04:06:43;99138.92;;;4.79;76.31
35307;BME280;21420;52.196;21.416;2024-01-25T04:09:12;99143.54;;;4.80;76.17
35307;BME280;21420;52.196;21.416;2024-01-25T04:11:40;99142.18;;;4.79;76.32
35307;BME280;21420;52.196;21.416;2024-01-25T04:14:06;99143.98;;;4.77;76.26
35307;BME280;21420;52.196;21.416;2024-01-25T04:16:33;99150.33;;;4.77;76.29
35307;BME280;21420;52.196;21.416;2024-01-25T04:19:00;99152.05;;;4.76;76.33
35307;BME280;21420;52.196;21.416;2024-01-25T04:21:28;99145.91;;;4.73;76.25
35307;BME280;21420;52.196;21.416;2024-01-25T04:23:54;99147.66;;;4.74;76.28
35307;BME280;21420;52.196;21.416;2024-01-25T04:26:22;99156.25;;;4.72;76.33
35307;BME280;21420;52.196;21.416;2024-01-25T04:28:48;99149.21;;;4.69;76.33
35307;BME280;21420;52.196;21.416;2024-01-25T04:31:16;99148.77;;;4.69;76.32
35307;BME280;21420;52.196;21.416;2024-01-25T04:33:43;99159.61;;;4.71;76.29
35307;BME280;21420;52.196;21.416;2024-01-25T04:36:14;99163.14;;;4.72;76.30
35307;BME280;21420;52.196;21.416;2024-01-25T04:38:41;99155.15;;;4.74;76.26
35307;BME280;21420;52.196;21.416;2024-01-25T04:41:07;99158.95;;;4.75;76.40
35307;BME280;21420;52.196;21.416;2024-01-25T04:43:35;99160.98;;;4.74;76.30
35307;BME280;21420;52.196;21.416;2024-01-25T04:46:03;99150.82;;;4.74;76.33
35307;BME280;21420;52.196;21.416;2024-01-25T04:48:31;99167.86;;;4.72;76.32
35307;BME280;21420;52.196;21.416;2024-01-25T04:50:58;99158.91;;;4.69;76.42
35307;BME280;21420;52.196;21.416;2024-01-25T04:53:25;99173.88;;;4.69;76.45
35307;BME280;21420;52.196;21.416;2024-01-25T04:55:55;99174.80;;;4.69;76.45
35307;BME280;21420;52.196;21.416;2024-01-25T04:58:23;99175.09;;;4.69;76.40
35307;BME280;21420;52.196;21.416;2024-01-25T05:00:50;99169.89;;;4.67;76.39
35307;BME280;21420;52.196;21.416;2024-01-25T05:03:19;99171.27;;;4.66;76.36
35307;BME280;21420;52.196;21.416;2024-01-25T05:05:47;99172.52;;;4.65;76.36
35307;BME280;21420;52.196;21.416;2024-01-25T05:08:13;99176.77;;;4.64;76.38
35307;BME280;21420;52.196;21.416;2024-01-25T05:10:41;99185.03;;;4.63;76.33
35307;BME280;21420;52.196;21.416;2024-01-25T05:13:08;99187.16;;;4.63;76.39
35307;BME280;21420;52.196;21.416;2024-01-25T05:15:36;99185.02;;;4.61;76.40
35307;BME280;21420;52.196;21.416;2024-01-25T05:18:03;99183.27;;;4.60;76.37
35307;BME280;21420;52.196;21.416;2024-01-25T05:20:30;99180.39;;;4.59;76.50
35307;BME280;21420;52.196;21.416;2024-01-25T05:23:04;99188.05;;;4.57;76.37
35307;BME280;21420;52.196;21.416;2024-01-25T05:25:31;99191.52;;;4.55;76.47
35307;BME280;21420;52.196;21.416;2024-01-25T05:27:59;99188.19;;;4.53;76.36
35307;BME280;21420;52.196;21.416;2024-01-25T05:30:26;99190.23;;;4.52;76.29
35307;BME280;21420;52.196;21.416;2024-01-25T05:32:53;99187.64;;;4.54;76.42
35307;BME280;21420;52.196;21.416;2024-01-25T05:35:22;99192.98;;;4.53;76.50
35307;BME280;21420;52.196;21.416;2024-01-25T05:37:50;99182.36;;;4.53;76.54
35307;BME280;21420;52.196;21.416;2024-01-25T05:40:18;99196.06;;;4.55;76.46
35307;BME280;21420;52.196;21.416;2024-01-25T05:42:44;99196.02;;;4.53;76.45
35307;BME280;21420;52.196;21.416;2024-01-25T05:45:12;99197.73;;;4.54;76.61
35307;BME280;21420;52.196;21.416;2024-01-25T05:47:38;99192.14;;;4.55;76.51
35307;BME280;21420;52.196;21.416;2024-01-25T05:50:06;99192.80;;;4.56;76.59
35307;BME280;21420;52.196;21.416;2024-01-25T05:52:33;99190.92;;;4.59;76.58
35307;BME280;21420;52.196;21.416;2024-01-25T05:55:00;99194.71;;;4.58;76.56
35307;BME280;21420;52.196;21.416;2024-01-25T05:57:32;99199.05;;;4.58;76.63
35307;BME280;21420;52.196;21.416;2024-01-25T05:59:59;99186.14;;;4.60;76.65
35307;BME280;21420;52.196;21.416;2024-01-25T06:12:49;99196.09;;;4.79;76.68
35307;BME280;21420;52.196;21.416;2024-01-25T06:15:16;99198.58;;;4.79;76.70
35307;BME280;21420;52.196;21.416;2024-01-25T06:17:43;99209.13;;;4.78;76.66
35307;BME280;21420;52.196;21.416;2024-01-25T06:20:10;99212.39;;;4.77;76.52
35307;BME280;21420;52.196;21.416;2024-01-25T06:22:38;99213.63;;;4.77;76.62
35307;BME280;21420;52.196;21.416;2024-01-25T06:25:05;99209.31;;;4.77;76.69
35307;BME280;21420;52.196;21.416;2024-01-25T06:27:34;99216.98;;;4.80;76.57
35307;BME280;21420;52.196;21.416;2024-01-25T06:30:01;99210.26;;;4.78;76.59
35307;BME280;21420;52.196;21.416;2024-01-25T06:32:28;99218.44;;;4.77;76.47
35307;BME280;21420;52.196;21.416;2024-01-25T06:34:55;99209.00;;;4.77;76.58
35307;BME280;21420;52.196;21.416;2024-01-25T06:37:22;99216.52;;;4.78;76.43
35307;BME280;21420;52.196;21.416;2024-01-25T06:39:49;99221.38;;;4.77;76.57
35307;BME280;21420;52.196;21.416;2024-01-25T06:42:15;99227.00;;;4.76;76.59
35307;BME280;21420;52.196;21.416;2024-01-25T06:44:42;99222.50;;;4.74;76.55
35307;BME280;21420;52.196;21.416;2024-01-25T06:47:09;99211.02;;;4.75;76.47
35307;BME280;21420;52.196;21.416;2024-01-25T06:49:37;99224.32;;;4.77;76.62
35307;BME280;21420;52.196;21.416;2024-01-25T06:52:04;99224.25;;;4.75;76.47
35307;BME280;21420;52.196;21.416;2024-01-25T06:54:31;99228.06;;;4.72;76.46
35307;BME280;21420;52.196;21.416;2024-01-25T06:56:58;99231.16;;;4.70;76.57
35307;BME280;21420;52.196;21.416;2024-01-25T06:59:24;99228.98;;;4.70;76.61
35307;BME280;21420;52.196;21.416;2024-01-25T07:01:51;99230.16;;;4.81;76.80
35307;BME280;21420;52.196;21.416;2024-01-25T07:04:19;99232.59;;;5.05;77.01
35307;BME280;21420;52.196;21.416;2024-01-25T07:06:46;99229.56;;;5.23;77.16
35307;BME280;21420;52.196;21.416;2024-01-25T07:09:13;99237.73;;;5.40;77.34
35307;BME280;21420;52.196;21.416;2024-01-25T07:11:41;99239.22;;;5.56;77.21
35307;BME280;21420;52.196;21.416;2024-01-25T07:14:08;99241.30;;;5.70;77.46
35307;BME280;21420;52.196;21.416;2024-01-25T07:16:35;99245.77;;;5.71;77.21
35307;BME280;21420;52.196;21.416;2024-01-25T07:19:02;99252.48;;;5.68;76.96
35307;BME280;21420;52.196;21.416;2024-01-25T07:21:29;99249.95;;;5.51;76.61
35307;BME280;21420;52.196;21.416;2024-01-25T07:24:03;99249.81;;;5.27;76.08
35307;BME280;21420;52.196;21.416;2024-01-25T07:26:30;99246.83;;;5.06;75.89
35307;BME280;21420;52.196;21.416;2024-01-25T07:28:57;99252.76;;;4.94;76.01
35307;BME280;21420;52.196;21.416;2024-01-25T07:31:26;99258.45;;;4.86;76.12
35307;BME280;21420;52.196;21.416;2024-01-25T07:33:54;99259.82;;;4.79;76.16
35307;BME280;21420;52.196;21.416;2024-01-25T07:36:22;99258.02;;;4.73;76.17
35307;BME280;21420;52.196;21.416;2024-01-25T07:38:51;99264.23;;;4.68;76.22
35307;BME280;21420;52.196;21.416;2024-01-25T07:41:18;99264.04;;;4.64;75.98
35307;BME280;21420;52.196;21.416;2024-01-25T07:43:44;99264.91;;;4.58;75.98
35307;BME280;21420;52.196;21.416;2024-01-25T07:46:11;99260.75;;;4.55;76.25
35307;BME280;21420;52.196;21.416;2024-01-25T07:48:42;99257.89;;;4.53;76.30
35307;BME280;21420;52.196;21.416;2024-01-25T07:51:13;99262.83;;;4.53;76.31
35307;BME280;21420;52.196;21.416;2024-01-25T07:53:40;99269.02;;;4.52;76.35
35307;BME280;21420;52.196;21.416;2024-01-25T07:56:07;99266.05;;;4.52;76.28
35307;BME280;21420;52.196;21.416;2024-01-25T07:58:35;99267.11;;;4.51;76.40
35307;BME280;21420;52.196;21.416;2024-01-25T08:01:04;99263.27;;;4.54;76.45
35307;BME280;21420;52.196;21.416;2024-01-25T08:03:32;99268.52;;;4.55;76.38
35307;BME280;21420;52.196;21.416;2024-01-25T08:06:01;99269.42;;;4.55;76.36
35307;BME280;21420;52.196;21.416;2024-01-25T08:08:29;99265.45;;;4.54;76.27
35307;BME280;21420;52.196;21.416;2024-01-25T08:10:56;99265.69;;;4.54;76.44
35307;BME280;21420;52.196;21.416;2024-01-25T08:13:22;99267.60;;;4.57;76.39
35307;BME280;21420;52.196;21.416;2024-01-25T08:15:51;99270.52;;;4.61;76.55
35307;BME280;21420;52.196;21.416;2024-01-25T08:18:18;99275.06;;;4.62;76.50
35307;BME280;21420;52.196;21.416;2024-01-25T08:20:46;99276.73;;;4.63;76.43
35307;BME280;21420;52.196;21.416;2024-01-25T08:23:13;99276.83;;;4.67;76.50
35307;BME280;21420;52.196;21.416;2024-01-25T08:25:41;99275.64;;;4.68;76.59
35307;BME280;21420;52.196;21.416;2024-01-25T08:28:08;99269.11;;;4.69;76.53
35307;BME280;21420;52.196;21.416;2024-01-25T08:30:35;99277.05;;;4.72;76.62
35307;BME280;21420;52.196;21.416;2024-01-25T08:33:02;99287.56;;;4.75;76.58
35307;BME280;21420;52.196;21.416;2024-01-25T08:35:30;99286.70;;;4.75;76.74
35307;BME280;21420;52.196;21.416;2024-01-25T08:37:57;99278.59;;;4.77;76.80
35307;BME280;21420;52.196;21.416;2024-01-25T08:40:24;99289.52;;;4.79;76.70
35307;BME280;21420;52.196;21.416;2024-01-25T08:42:53;99297.40;;;4.83;76.62
35307;BME280;21420;52.196;21.416;2024-01-25T08:45:20;99296.40;;;4.87;76.68
35307;BME280;21420;52.196;21.416;2024-01-25T08:47:47;99284.36;;;4.88;76.57
35307;BME280;21420;52.196;21.416;2024-01-25T08:50:16;99283.89;;;4.89;76.72
35307;BME280;21420;52.196;21.416;2024-01-25T08:52:43;99283.94;;;4.92;76.69
35307;BME280;21420;52.196;21.416;2024-01-25T08:55:10;99292.85;;;4.96;76.83
35307;BME280;21420;52.196;21.416;2024-01-25T08:57:37;99299.75;;;4.98;76.84
35307;BME280;21420;52.196;21.416;2024-01-25T09:00:07;99287.27;;;5.04;76.86
35307;BME280;21420;52.196;21.416;2024-01-25T09:02:38;99297.31;;;5.11;76.98
35307;BME280;21420;52.196;21.416;2024-01-25T09:05:05;99305.82;;;5.16;76.79
35307;BME280;21420;52.196;21.416;2024-01-25T09:07:32;99306.63;;;5.19;76.80
35307;BME280;21420;52.196;21.416;2024-01-25T09:09:59;99311.23;;;5.19;76.86
35307;BME280;21420;52.196;21.416;2024-01-25T09:12:26;99318.34;;;5.20;76.82
35307;BME280;21420;52.196;21.416;2024-01-25T09:14:53;99321.81;;;5.24;76.83
35307;BME280;21420;52.196;21.416;2024-01-25T09:17:20;99329.64;;;5.24;76.79
35307;BME280;21420;52.196;21.416;2024-01-25T09:19:50;99333.98;;;5.20;76.77
35307;BME280;21420;52.196;21.416;2024-01-25T09:22:18;99331.27;;;5.16;76.59
35307;BME280;21420;52.196;21.416;2024-01-25T09:24:46;99342.77;;;5.15;76.64
35307;BME280;21420;52.196;21.416;2024-01-25T09:27:14;99336.56;;;5.13;76.68
35307;BME280;21420;52.196;21.416;2024-01-25T09:29:41;99329.16;;;5.12;76.66
35307;BME280;21420;52.196;21.416;2024-01-25T09:32:09;99345.42;;;5.12;76.63
35307;BME280;21420;52.196;21.416;2024-01-25T09:34:37;99343.09;;;5.10;76.52
35307;BME280;21420;52.196;21.416;2024-01-25T09:37:07;99352.61;;;5.11;76.64
35307;BME280;21420;52.196;21.416;2024-01-25T09:39:34;99352.21;;;5.13;76.75
35307;BME280;21420;52.196;21.416;2024-01-25T09:42:03;99356.32;;;5.15;76.64
35307;BME280;21420;52.196;21.416;2024-01-25T09:44:30;99358.23;;;5.16;76.73
35307;BME280;21420;52.196;21.416;2024-01-25T09:47:02;99355.56;;;5.17;76.52
35307;BME280;21420;52.196;21.416;2024-01-25T09:49:29;99369.02;;;5.18;76.68
35307;BME280;21420;52.196;21.416;2024-01-25T09:51:57;99365.88;;;5.21;76.72
35307;BME280;21420;52.196;21.416;2024-01-25T09:54:39;99369.30;;;5.21;76.74
35307;BME280;21420;52.196;21.416;2024-01-25T09:57:13;99381.16;;;5.21;76.79
35307;BME280;21420;52.196;21.416;2024-01-25T09:59:41;99378.55;;;5.24;76.85
35307;BME280;21420;52.196;21.416;2024-01-25T10:02:09;99376.60;;;5.25;76.79
35307;BME280;21420;52.196;21.416;2024-01-25T10:04:37;99379.80;;;5.27;76.73
35307;BME280;21420;52.196;21.416;2024-01-25T10:07:04;99382.38;;;5.29;76.80
35307;BME280;21420;52.196;21.416;2024-01-25T10:09:38;99385.94;;;5.31;76.86
35307;BME280;21420;52.196;21.416;2024-01-25T10:12:08;99389.83;;;5.33;76.84
35307;BME280;21420;52.196;21.416;2024-01-25T10:14:44;99397.84;;;5.34;76.74
35307;BME280;21420;52.196;21.416;2024-01-25T10:17:11;99408.33;;;5.31;76.73
35307;BME280;21420;52.196;21.416;2024-01-25T10:19:43;99410.89;;;5.29;76.76
35307;BME280;21420;52.196;21.416;2024-01-25T10:22:11;99403.73;;;5.30;76.80
35307;BME280;21420;52.196;21.416;2024-01-25T10:24:42;99411.26;;;5.34;76.92
35307;BME280;21420;52.196;21.416;2024-01-25T10:27:09;99412.81;;;5.34;76.90
35307;BME280;21420;52.196;21.416;2024-01-25T10:29:36;99404.30;;;5.34;76.83
35307;BME280;21420;52.196;21.416;2024-01-25T10:32:03;99402.34;;;5.36;76.81
35307;BME280;21420;52.196;21.416;2024-01-25T10:34:31;99414.48;;;5.35;76.76
35307;BME280;21420;52.196;21.416;2024-01-25T10:37:03;99412.30;;;5.35;76.83
35307;BME280;21420;52.196;21.416;2024-01-25T10:39:31;99419.45;;;5.37;76.84
35307;BME280;21420;52.196;21.416;2024-01-25T10:42:00;99422.54;;;5.40;76.98
35307;BME280;21420;52.196;21.416;2024-01-25T10:44:27;99423.45;;;5.46;76.87
35307;BME280;21420;52.196;21.416;2024-01-25T10:46:54;99420.32;;;5.47;76.91
35307;BME280;21420;52.196;21.416;2024-01-25T10:49:21;99422.95;;;5.45;76.71
35307;BME280;21420;52.196;21.416;2024-01-25T10:51:49;99427.04;;;5.46;76.78
35307;BME280;21420;52.196;21.416;2024-01-25T10:54:16;99428.67;;;5.48;76.86
35307;BME280;21420;52.196;21.416;2024-01-25T10:56:46;99433.23;;;5.53;76.91
35307;BME280;21420;52.196;21.416;2024-01-25T10:59:15;99430.80;;;5.58;76.96
35307;BME280;21420;52.196;21.416;2024-01-25T11:01:46;99426.01;;;5.62;76.94
35307;BME280;21420;52.196;21.416;2024-01-25T11:04:17;99429.77;;;5.63;77.02
35307;BME280;21420;52.196;21.416;2024-01-25T11:06:45;99426.87;;;5.65;77.10
35307;BME280;21420;52.196;21.416;2024-01-25T11:09:20;99431.88;;;5.67;76.96
35307;BME280;21420;52.196;21.416;2024-01-25T11:11:48;99440.05;;;5.70;76.99
35307;BME280;21420;52.196;21.416;2024-01-25T11:14:16;99444.39;;;5.72;76.97
35307;BME280;21420;52.196;21.416;2024-01-25T11:16:43;99447.05;;;5.69;76.82
35307;BME280;21420;52.196;21.416;2024-01-25T11:19:18;99441.75;;;5.64;76.78
35307;BME280;21420;52.196;21.416;2024-01-25T11:21:47;99442.34;;;5.60;76.68
35307;BME280;21420;52.196;21.416;2024-01-25T11:24:16;99441.98;;;5.58;76.75
35307;BME280;21420;52.196;21.416;2024-01-25T11:26:43;99438.67;;;5.59;76.68
35307;BME280;21420;52.196;21.416;2024-01-25T11:29:17;99444.77;;;5.60;76.84
35307;BME280;21420;52.196;21.416;2024-01-25T11:31:45;99443.33;;;5.63;76.77
35307;BME280;21420;52.196;21.416;2024-01-25T11:34:14;99450.15;;;5.65;76.84
35307;BME280;21420;52.196;21.416;2024-01-25T11:36:42;99454.86;;;5.64;76.77
35307;BME280;21420;52.196;21.416;2024-01-25T11:39:11;99460.58;;;5.63;76.96
35307;BME280;21420;52.196;21.416;2024-01-25T11:41:38;99463.58;;;5.61;76.96
35307;BME280;21420;52.196;21.416;2024-01-25T11:44:05;99462.06;;;5.60;76.93
35307;BME280;21420;52.196;21.416;2024-01-25T11:46:32;99462.32;;;5.60;76.76
35307;BME280;21420;52.196;21.416;2024-01-25T11:49:04;99464.56;;;5.58;76.83
35307;BME280;21420;52.196;21.416;2024-01-25T11:51:31;99470.16;;;5.57;76.73
35307;BME280;21420;52.196;21.416;2024-01-25T11:54:01;99471.72;;;5.59;76.91
35307;BME280;21420;52.196;21.416;2024-01-25T11:56:31;99475.19;;;5.60;76.83
35307;BME280;21420;52.196;21.416;2024-01-25T11:59:00;99475.25;;;5.60;76.85
35307;BME280;21420;52.196;21.416;2024-01-25T12:01:28;99490.24;;;5.60;76.89
35307;BME280;21420;52.196;21.416;2024-01-25T12:03:56;99495.55;;;5.62;76.98
35307;BME280;21420;52.196;21.416;2024-01-25T12:06:23;99497.39;;;5.64;76.89
35307;BME280;21420;52.196;21.416;2024-01-25T12:08:50;99508.52;;;5.63;76.77
35307;BME280;21420;52.196;21.416;2024-01-25T12:11:18;99517.81;;;5.62;76.93
35307;BME280;21420;52.196;21.416;2024-01-25T12:13:48;99520.76;;;5.62;76.84
35307;BME280;21420;52.196;21.416;2024-01-25T12:16:15;99532.91;;;5.60;76.81
35307;BME280;21420;52.196;21.416;2024-01-25T12:18:43;99530.52;;;5.56;76.86
35307;BME280;21420;52.196;21.416;2024-01-25T12:21:13;99554.83;;;5.50;76.83
35307;BME280;21420;52.196;21.416;2024-01-25T12:23:40;99552.58;;;5.41;76.72
35307;BME280;21420;52.196;21.416;2024-01-25T12:26:09;99572.06;;;5.31;76.41
35307;BME280;21420;52.196;21.416;2024-01-25T12:28:37;99578.68;;;5.23;76.51
35307;BME280;21420;52.196;21.416;2024-01-25T12:31:05;99584.36;;;5.18;76.64
35307;BME280;21420;52.196;21.416;2024-01-25T12:33:33;99582.48;;;5.12;76.53
35307;BME280;21420;52.196;21.416;2024-01-25T12:36:02;99581.48;;;5.07;76.31
35307;BME280;21420;52.196;21.416;2024-01-25T12:38:29;99590.51;;;5.01;76.33
35307;BME280;21420;52.196;21.416;2024-01-25T12:40:59;99582.05;;;4.97;76.40
35307;BME280;21420;52.196;21.416;2024-01-25T12:43:27;99599.22;;;4.91;76.46
35307;BME280;21420;52.196;21.416;2024-01-25T12:45:54;99614.55;;;4.86;76.36
35307;BME280;21420;52.196;21.416;2024-01-25T12:48:29;99619.06;;;4.85;76.44
35307;BME280;21420;52.196;21.416;2024-01-25T12:50:56;99610.00;;;4.92;76.55
35307;BME280;21420;52.196;21.416;2024-01-25T12:53:23;99619.91;;;4.96;76.61
35307;BME280;21420;52.196;21.416;2024-01-25T12:55:50;99618.19;;;4.99;76.58
35307;BME280;21420;52.196;21.416;2024-01-25T12:58:17;99619.67;;;4.98;76.58
35307;BME280;21420;52.196;21.416;2024-01-25T13:00:44;99623.77;;;4.94;76.34
35307;BME280;21420;52.196;21.416;2024-01-25T13:03:12;99636.65;;;4.86;76.24
35307;BME280;21420;52.196;21.416;2024-01-25T13:05:41;99630.79;;;4.82;76.21
35307;BME280;21420;52.196;21.416;2024-01-25T13:08:08;99646.60;;;4.75;76.19
35307;BME280;21420;52.196;21.416;2024-01-25T13:10:35;99647.48;;;4.69;76.21
35307;BME280;21420;52.196;21.416;2024-01-25T13:13:01;99646.64;;;4.68;76.39